createdAt,value
2023-05-05T00:00:15.958Z,94.70
2023-05-05T00:02:44.169Z,94.70
2023-05-05T00:05:12.435Z,94.90
2023-05-05T00:07:40.427Z,95.00
2023-05-05T00:10:09.024Z,95.10
2023-05-05T00:12:37.362Z,95.00
2023-05-05T00:15:06.102Z,95.10
2023-05-05T00:17:35.605Z,95.30
2023-05-05T00:20:03.543Z,95.30
2023-05-05T00:22:31.475Z,95.50
2023-05-05T00:24:59.472Z,95.50
2023-05-05T00:27:27.424Z,95.40
2023-05-05T00:29:55.388Z,95.30
2023-05-05T00:32:23.515Z,95.10
2023-05-05T00:34:52.986Z,95.20
2023-05-05T00:37:21.003Z,95.10
2023-05-05T00:39:48.983Z,95.10
2023-05-05T00:42:16.944Z,94.80
2023-05-05T00:44:44.922Z,95.10
2023-05-05T00:47:14.398Z,95.00
2023-05-05T00:49:42.426Z,94.90
2023-05-05T00:52:12.471Z,95.10
2023-05-05T00:54:40.637Z,95.20
2023-05-05T00:57:08.878Z,95.90
2023-05-05T00:59:37.934Z,96.70
2023-05-05T01:02:05.964Z,97.20
2023-05-05T01:04:33.944Z,96.90
2023-05-05T01:07:14.833Z,96.80
2023-05-05T01:10:04.457Z,96.70
2023-05-05T01:12:47.555Z,97.30
2023-05-05T01:15:21.032Z,97.70
2023-05-05T01:17:56.069Z,98.00
2023-05-05T01:20:30.152Z,97.90
2023-05-05T01:23:00.519Z,97.70
2023-05-05T01:25:53.399Z,97.50
2023-05-05T01:28:35.837Z,97.50
2023-05-05T01:31:17.918Z,98.00
2023-05-05T01:33:50.616Z,98.60
2023-05-05T01:36:23.602Z,98.70
2023-05-05T01:38:56.821Z,99.10
2023-05-05T01:41:29.434Z,99.00
2023-05-05T01:44:00.906Z,99.00
2023-05-05T01:46:29.413Z,99.10
2023-05-05T01:49:00.174Z,98.60
2023-05-05T01:51:29.388Z,98.40
2023-05-05T01:54:00.994Z,98.00
2023-05-05T01:56:31.036Z,97.40
2023-05-05T01:59:02.949Z,97.40
2023-05-05T02:01:32.735Z,97.50
2023-05-05T02:04:04.346Z,97.60
2023-05-05T02:06:33.580Z,97.50
2023-05-05T02:09:03.400Z,97.10
2023-05-05T02:11:32.048Z,97.20
2023-05-05T02:14:02.301Z,97.20
2023-05-05T02:16:31.251Z,96.60
2023-05-05T02:19:04.684Z,96.60
2023-05-05T02:21:33.786Z,96.50
2023-05-05T02:24:02.331Z,96.40
2023-05-05T02:26:34.852Z,96.40
2023-05-05T02:29:07.331Z,96.50
2023-05-05T02:31:39.450Z,96.80
2023-05-05T02:34:09.812Z,96.70
2023-05-05T02:36:40.893Z,96.50
2023-05-05T02:39:14.270Z,96.80
2023-05-05T02:41:43.976Z,97.20
2023-05-05T02:44:15.039Z,97.40
2023-05-05T02:46:44.177Z,97.40
2023-05-05T02:49:13.535Z,97.40
2023-05-05T02:51:41.537Z,97.40
2023-05-05T02:54:09.593Z,97.90
2023-05-05T02:56:44.108Z,98.10
2023-05-05T02:59:17.123Z,98.30
2023-05-05T03:01:59.688Z,98.20
2023-05-05T03:04:39.348Z,98.50
2023-05-05T03:07:14.182Z,98.50
2023-05-05T03:09:47.133Z,98.70
2023-05-05T03:12:20.187Z,98.80
2023-05-05T03:14:49.632Z,98.80
2023-05-05T03:17:19.657Z,98.70
2023-05-05T03:19:49.550Z,98.60
2023-05-05T03:22:17.677Z,98.90
2023-05-05T03:24:51.060Z,98.90
2023-05-05T03:27:20.431Z,99.00
2023-05-05T03:29:48.434Z,99.00
2023-05-05T03:32:16.609Z,99.00
2023-05-05T03:34:44.578Z,99.10
2023-05-05T03:37:13.973Z,99.10
2023-05-05T03:39:41.916Z,99.10
2023-05-05T03:42:09.882Z,99.20
2023-05-05T03:44:38.006Z,99.00
2023-05-05T03:47:06.406Z,99.00
2023-05-05T03:49:34.392Z,99.40
2023-05-05T03:52:02.350Z,99.40
2023-05-05T03:54:31.879Z,99.40
2023-05-05T03:57:00.117Z,99.00
2023-05-05T03:59:28.408Z,98.90
2023-05-05T04:01:56.837Z,99.00
2023-05-05T04:04:24.983Z,98.90
2023-05-05T04:06:53.047Z,98.70
2023-05-05T04:09:21.019Z,98.70
2023-05-05T04:11:50.332Z,98.60
2023-05-05T04:14:18.390Z,98.50
2023-05-05T04:16:46.390Z,98.40
2023-05-05T04:19:14.373Z,98.40
2023-05-05T04:21:42.446Z,98.50
2023-05-05T04:24:10.467Z,99.10
2023-05-05T04:26:38.557Z,99.40
2023-05-05T04:29:09.460Z,99.80
2023-05-05T04:31:37.569Z,99.80
2023-05-05T04:34:05.620Z,99.60
2023-05-05T04:36:33.549Z,99.60
2023-05-05T04:39:01.561Z,99.60
2023-05-05T04:41:30.176Z,99.20
2023-05-05T04:43:58.240Z,99.30
2023-05-05T04:46:27.638Z,99.30
2023-05-05T04:48:55.626Z,99.10
2023-05-05T04:51:23.568Z,99.10
2023-05-05T04:53:52.003Z,99.10
2023-05-05T04:56:20.042Z,99.30
2023-05-05T04:58:48.015Z,99.80
2023-05-05T05:01:15.998Z,99.40
2023-05-05T05:03:45.982Z,99.10
2023-05-05T05:06:14.050Z,99.30
2023-05-05T05:08:42.386Z,99.20
2023-05-05T05:11:10.464Z,99.10
2023-05-05T05:13:38.575Z,99.30
2023-05-05T05:16:08.126Z,99.40
2023-05-05T05:18:36.277Z,99.70
2023-05-05T05:21:05.626Z,99.60
2023-05-05T05:23:33.655Z,99.70
2023-05-05T05:26:01.747Z,99.60
2023-05-05T05:28:29.820Z,99.20
2023-05-05T05:30:57.855Z,99.00
2023-05-05T05:33:25.866Z,99.20
2023-05-05T05:35:53.941Z,99.30
2023-05-05T05:38:23.279Z,99.00
2023-05-05T05:40:51.276Z,98.70
2023-05-05T05:43:19.215Z,98.40
2023-05-05T05:45:47.206Z,98.30
2023-05-05T05:48:15.159Z,97.90
2023-05-05T05:50:43.181Z,97.60
2023-05-05T05:53:11.156Z,97.60
2023-05-05T05:55:41.164Z,97.40
2023-05-05T05:58:09.100Z,97.20
2023-05-05T06:00:37.037Z,97.10
2023-05-05T06:03:05.487Z,97.00
2023-05-05T06:05:33.877Z,96.90
2023-05-05T06:08:01.846Z,96.60
2023-05-05T06:10:29.983Z,96.70
2023-05-05T06:12:59.679Z,96.30
2023-05-05T06:15:27.694Z,96.40
2023-05-05T06:17:55.779Z,96.30
2023-05-05T06:20:23.742Z,96.30
2023-05-05T06:22:51.689Z,96.30
2023-05-05T06:25:19.654Z,96.40
2023-05-05T06:27:47.611Z,96.60
2023-05-05T06:30:17.854Z,96.30
2023-05-05T06:32:45.848Z,96.00
2023-05-05T06:35:13.836Z,95.60
2023-05-05T06:37:41.839Z,95.40
2023-05-05T06:40:11.366Z,95.00
2023-05-05T06:42:39.362Z,95.10
2023-05-05T06:45:08.272Z,94.50
2023-05-05T06:47:38.167Z,94.60
2023-05-05T06:50:08.556Z,94.30
2023-05-05T06:52:36.772Z,94.30
2023-05-05T06:55:04.929Z,94.00
2023-05-05T06:57:32.883Z,94.10
2023-05-05T07:00:01.365Z,93.90
2023-05-05T07:02:29.407Z,93.80
2023-05-05T07:04:58.898Z,93.90
2023-05-05T07:07:27.018Z,93.90
2023-05-05T07:09:55.023Z,93.70
2023-05-05T07:12:23.179Z,93.50
2023-05-05T07:14:51.380Z,93.40
2023-05-05T07:17:19.852Z,93.40
2023-05-05T07:19:48.365Z,93.40
2023-05-05T07:22:17.949Z,93.30
2023-05-05T07:24:45.929Z,93.30
2023-05-05T07:27:14.022Z,93.00
2023-05-05T07:29:42.093Z,92.90
2023-05-05T07:32:10.089Z,92.60
2023-05-05T07:34:38.271Z,92.40
2023-05-05T07:37:06.376Z,92.30
2023-05-05T07:39:35.719Z,92.30
2023-05-05T07:42:03.690Z,92.40
2023-05-05T07:44:31.782Z,92.20
2023-05-05T07:46:59.893Z,92.00
2023-05-05T07:49:28.088Z,91.50
2023-05-05T07:51:56.073Z,91.70
2023-05-05T07:54:24.045Z,91.60
2023-05-05T07:56:53.420Z,91.60
2023-05-05T07:59:21.721Z,91.00
2023-05-05T08:01:49.802Z,91.00
2023-05-05T08:04:17.865Z,90.70
2023-05-05T08:06:45.865Z,90.80
2023-05-05T08:09:13.903Z,90.80
2023-05-05T08:11:41.876Z,90.70
2023-05-05T08:14:11.287Z,90.50
2023-05-05T08:16:39.249Z,90.70
2023-05-05T08:19:17.655Z,90.60
2023-05-05T08:21:49.484Z,90.40
2023-05-05T08:24:17.477Z,90.20
2023-05-05T08:26:45.542Z,90.50
2023-05-05T08:29:14.882Z,90.50
2023-05-05T08:31:42.921Z,90.00
2023-05-05T08:34:11.015Z,90.00
2023-05-05T08:36:38.977Z,90.10
2023-05-05T08:39:07.124Z,90.00
2023-05-05T08:41:35.496Z,90.20
2023-05-05T08:44:03.579Z,90.00
2023-05-05T08:46:33.200Z,89.90
2023-05-05T08:49:03.849Z,90.10
2023-05-05T08:51:38.342Z,90.50
2023-05-05T08:54:08.137Z,90.40
2023-05-05T08:56:41.980Z,90.00
2023-05-05T08:59:12.194Z,90.20
2023-05-05T09:01:43.060Z,90.20
2023-05-05T09:04:11.775Z,89.40
2023-05-05T09:06:39.830Z,89.00
2023-05-05T09:09:08.427Z,89.00
2023-05-05T09:11:37.471Z,88.00
2023-05-05T09:14:05.490Z,88.70
2023-05-05T09:16:33.699Z,88.50
2023-05-05T09:19:06.318Z,87.50
2023-05-05T09:21:34.338Z,88.60
2023-05-05T09:24:08.914Z,86.70
2023-05-05T09:26:38.660Z,85.80
2023-05-05T09:29:07.073Z,85.60
2023-05-05T09:31:37.007Z,86.30
2023-05-05T09:34:17.232Z,85.20
2023-05-05T09:36:47.913Z,85.30
2023-05-05T09:39:17.911Z,85.30
2023-05-05T09:41:46.077Z,84.80
2023-05-05T09:44:16.163Z,85.50
2023-05-05T09:46:52.371Z,84.50
2023-05-05T09:49:25.515Z,82.00
2023-05-05T09:51:54.175Z,83.60
2023-05-05T09:54:26.442Z,83.20
2023-05-05T09:56:54.797Z,82.60
2023-05-05T09:59:23.535Z,81.90
2023-05-05T10:01:52.422Z,82.30
2023-05-05T10:04:29.664Z,82.70
2023-05-05T10:06:59.217Z,82.50
2023-05-05T10:09:28.259Z,82.00
2023-05-05T10:11:58.319Z,79.40
2023-05-05T10:14:27.991Z,80.10
2023-05-05T10:16:56.949Z,79.30
2023-05-05T10:19:28.942Z,78.60
2023-05-05T10:22:08.278Z,78.60
2023-05-05T10:24:40.104Z,76.50
2023-05-05T10:27:16.414Z,76.40
2023-05-05T10:29:53.343Z,75.90
2023-05-05T10:32:47.300Z,76.30
2023-05-05T10:35:19.747Z,74.80
2023-05-05T10:37:48.483Z,75.10
2023-05-05T10:40:17.899Z,74.70
2023-05-05T10:42:46.578Z,73.20
2023-05-05T10:45:14.708Z,72.50
2023-05-05T10:47:44.410Z,70.20
2023-05-05T10:50:22.357Z,68.90
2023-05-05T10:52:59.230Z,70.00
2023-05-05T10:55:37.997Z,71.00
2023-05-05T10:58:06.293Z,70.50
2023-05-05T11:00:53.011Z,69.90
2023-05-05T11:03:22.513Z,71.90
2023-05-05T11:06:12.563Z,72.00
2023-05-05T11:08:42.014Z,70.40
2023-05-05T11:11:11.476Z,67.40
2023-05-05T11:13:40.915Z,66.20
2023-05-05T11:16:38.692Z,68.40
2023-05-05T11:19:46.757Z,65.50
2023-05-05T11:22:17.531Z,64.30
2023-05-05T11:24:45.760Z,63.30
2023-05-05T11:27:13.756Z,63.60
2023-05-05T11:30:07.662Z,64.20
2023-05-05T11:32:36.066Z,63.20
2023-05-05T11:35:04.236Z,62.40
2023-05-05T11:37:34.438Z,63.10
2023-05-05T11:40:11.142Z,62.90
2023-05-05T11:42:39.197Z,63.70
2023-05-05T11:45:21.692Z,61.90
2023-05-05T11:47:49.829Z,63.10
2023-05-05T11:50:20.204Z,60.60
2023-05-05T11:52:50.266Z,61.90
2023-05-05T11:55:23.212Z,62.10
2023-05-05T11:57:51.475Z,60.10
2023-05-05T12:00:20.147Z,60.60
2023-05-05T12:02:48.404Z,61.80
2023-05-05T12:05:21.956Z,61.10
2023-05-05T12:07:57.901Z,58.30
2023-05-05T12:10:26.060Z,57.20
2023-05-05T12:12:55.389Z,57.10
2023-05-05T12:15:32.337Z,57.60
2023-05-05T12:18:02.635Z,60.20
2023-05-05T12:20:32.886Z,59.70
2023-05-05T12:23:03.977Z,59.40
2023-05-05T12:25:39.304Z,59.20
2023-05-05T12:28:08.371Z,59.40
2023-05-05T12:30:36.626Z,59.40
2023-05-05T12:33:06.173Z,59.70
2023-05-05T12:35:34.961Z,59.00
2023-05-05T12:38:04.550Z,58.60
2023-05-05T12:40:46.565Z,56.50
2023-05-05T12:43:31.476Z,56.60
2023-05-05T12:46:03.982Z,56.10
2023-05-05T12:48:32.069Z,57.30
2023-05-05T12:51:17.331Z,56.70
2023-05-05T12:53:49.570Z,56.10
2023-05-05T12:56:34.604Z,56.20
2023-05-05T12:59:03.460Z,55.40
2023-05-05T13:01:32.123Z,55.20
2023-05-05T13:04:13.980Z,54.80
2023-05-05T13:06:43.115Z,55.70
2023-05-05T13:09:23.697Z,56.00
2023-05-05T13:11:52.657Z,55.10
2023-05-05T13:14:20.708Z,54.90
2023-05-05T13:16:48.729Z,55.00
2023-05-05T13:19:16.717Z,54.90
2023-05-05T13:21:44.700Z,53.80
2023-05-05T13:24:26.103Z,53.80
2023-05-05T13:26:59.474Z,54.00
2023-05-05T13:29:31.093Z,51.40
2023-05-05T13:31:59.965Z,51.90
2023-05-05T13:34:28.279Z,52.00
2023-05-05T13:36:56.227Z,52.70
2023-05-05T13:39:25.612Z,52.30
2023-05-05T13:41:53.565Z,52.80
2023-05-05T13:44:21.999Z,51.20
2023-05-05T13:46:50.154Z,49.60
2023-05-05T13:49:18.308Z,50.00
2023-05-05T13:51:47.136Z,48.70
2023-05-05T13:54:15.344Z,48.90
2023-05-05T13:56:44.819Z,46.70
2023-05-05T13:59:12.784Z,45.30
2023-05-05T14:01:40.808Z,45.10
2023-05-05T14:04:09.460Z,44.90
2023-05-05T14:06:37.499Z,43.90
2023-05-05T14:09:07.948Z,45.90
2023-05-05T14:11:36.026Z,46.20
2023-05-05T14:14:06.132Z,47.30
2023-05-05T14:16:34.333Z,46.90
2023-05-05T14:19:02.329Z,47.80
2023-05-05T14:21:30.273Z,45.90
2023-05-05T14:23:58.261Z,46.10
2023-05-05T14:26:27.285Z,46.20
2023-05-05T14:28:55.293Z,46.40
2023-05-05T14:31:24.843Z,46.40
2023-05-05T14:33:53.454Z,47.20
2023-05-05T14:36:21.429Z,46.20
2023-05-05T14:38:49.473Z,46.50
2023-05-05T14:41:17.436Z,47.10
2023-05-05T14:43:45.465Z,47.70
2023-05-05T14:46:13.583Z,47.60
2023-05-05T14:48:42.998Z,48.40
2023-05-05T14:51:11.005Z,49.50
2023-05-05T14:53:38.979Z,49.30
2023-05-05T14:56:08.015Z,49.40
2023-05-05T14:58:36.030Z,50.00
2023-05-05T15:01:04.926Z,50.70
2023-05-05T15:03:33.320Z,51.00
2023-05-05T15:06:03.029Z,49.50
2023-05-05T15:08:30.990Z,48.70
2023-05-05T15:10:58.962Z,46.10
2023-05-05T15:13:27.029Z,46.30
2023-05-05T15:15:55.104Z,46.00
2023-05-05T15:18:23.140Z,44.90
2023-05-05T15:20:51.173Z,44.20
2023-05-05T15:23:20.501Z,45.30
2023-05-05T15:25:48.449Z,44.70
2023-05-05T15:28:17.309Z,45.20
2023-05-05T15:30:45.283Z,45.40
2023-05-05T15:33:13.417Z,46.20
2023-05-05T15:35:41.368Z,46.90
2023-05-05T15:38:10.309Z,47.20
2023-05-05T15:40:39.630Z,47.70
2023-05-05T15:43:08.067Z,47.70
2023-05-05T15:45:36.318Z,47.70
2023-05-05T15:48:04.488Z,47.90
2023-05-05T15:50:32.573Z,48.30
2023-05-05T15:53:00.804Z,49.10
2023-05-05T15:55:29.109Z,49.30
2023-05-05T15:57:58.511Z,49.50
2023-05-05T16:00:26.777Z,50.00
2023-05-05T16:02:54.857Z,50.90
2023-05-05T16:05:23.275Z,50.50
2023-05-05T16:07:52.524Z,51.70
2023-05-05T16:10:20.945Z,50.70
2023-05-05T16:12:48.939Z,50.70
2023-05-05T16:15:18.433Z,51.60
2023-05-05T16:17:46.415Z,52.10
2023-05-05T16:20:14.485Z,52.10
2023-05-05T16:22:42.449Z,53.00
2023-05-05T16:25:11.172Z,53.10
2023-05-05T16:27:39.282Z,53.80
2023-05-05T16:30:08.833Z,54.30
2023-05-05T16:32:38.244Z,54.30
2023-05-05T16:35:07.704Z,54.40
2023-05-05T16:37:35.975Z,54.70
2023-05-05T16:40:05.481Z,54.40
2023-05-05T16:42:33.504Z,55.00
2023-05-05T16:45:01.499Z,54.50
2023-05-05T16:47:29.455Z,54.40
2023-05-05T16:49:59.087Z,54.90
2023-05-05T16:52:27.174Z,55.30
2023-05-05T16:54:56.611Z,55.60
2023-05-05T16:57:24.672Z,57.00
2023-05-05T16:59:55.757Z,56.60
2023-05-05T17:02:23.986Z,57.50
2023-05-05T17:04:52.047Z,57.00
2023-05-05T17:07:21.418Z,56.10
2023-05-05T17:09:49.492Z,56.10
2023-05-05T17:12:17.514Z,57.00
2023-05-05T17:14:46.052Z,57.50
2023-05-05T17:17:14.306Z,57.20
2023-05-05T17:19:42.684Z,57.50
2023-05-05T17:22:10.659Z,57.60
2023-05-05T17:24:40.051Z,58.00
2023-05-05T17:27:07.999Z,58.40
2023-05-05T17:29:40.468Z,58.50
2023-05-05T17:32:08.567Z,58.50
2023-05-05T17:34:36.733Z,59.20
2023-05-05T17:37:04.796Z,59.70
2023-05-05T17:39:32.744Z,60.20
2023-05-05T17:42:02.054Z,60.50
2023-05-05T17:44:31.503Z,60.10
2023-05-05T17:46:59.538Z,60.70
2023-05-05T17:49:27.490Z,61.20
2023-05-05T17:51:55.438Z,61.70
2023-05-05T17:54:23.373Z,62.30
2023-05-05T17:56:51.555Z,62.60
2023-05-05T17:59:20.869Z,62.30
2023-05-05T18:01:48.912Z,63.60
2023-05-05T18:04:17.590Z,63.60
2023-05-05T18:06:45.539Z,64.10
2023-05-05T18:09:13.768Z,64.80
2023-05-05T18:11:42.188Z,65.20
2023-05-05T18:14:10.802Z,65.60
2023-05-05T18:16:40.137Z,65.20
2023-05-05T18:19:08.129Z,66.10
2023-05-05T18:21:36.102Z,66.90
2023-05-05T18:24:15.872Z,66.70
2023-05-05T18:26:50.414Z,66.80
2023-05-05T18:29:18.800Z,67.40
2023-05-05T18:31:51.557Z,67.20
2023-05-05T18:34:20.559Z,67.90
2023-05-05T18:36:49.227Z,68.40
2023-05-05T18:39:17.793Z,68.20
2023-05-05T18:41:45.780Z,68.90
2023-05-05T18:44:13.777Z,69.20
2023-05-05T18:46:43.051Z,69.20
2023-05-05T18:49:12.494Z,69.50
2023-05-05T18:51:40.578Z,70.20
2023-05-05T18:54:08.644Z,70.00
2023-05-05T18:56:36.975Z,69.80
2023-05-05T18:59:05.273Z,69.70
2023-05-05T19:01:33.284Z,70.80
2023-05-05T19:04:01.426Z,71.70
2023-05-05T19:06:31.068Z,72.20
2023-05-05T19:08:59.195Z,72.10
2023-05-05T19:11:27.243Z,71.90
2023-05-05T19:13:55.357Z,72.00
2023-05-05T19:16:23.790Z,72.30
2023-05-05T19:18:51.782Z,74.10
2023-05-05T19:21:19.806Z,74.70
2023-05-05T19:23:49.109Z,74.70
2023-05-05T19:26:17.109Z,75.10
2023-05-05T19:28:45.282Z,76.50
2023-05-05T19:31:13.250Z,76.10
2023-05-05T19:33:45.069Z,76.80
2023-05-05T19:36:13.218Z,76.00
2023-05-05T19:38:44.323Z,76.80
2023-05-05T19:41:13.890Z,77.40
2023-05-05T19:43:41.868Z,77.60
2023-05-05T19:46:09.953Z,77.10
2023-05-05T19:48:37.996Z,77.60
2023-05-05T19:51:06.108Z,77.50
2023-05-05T19:53:34.153Z,78.60
2023-05-05T19:56:02.123Z,78.90
2023-05-05T19:58:31.466Z,80.10
2023-05-05T20:00:59.436Z,80.70
2023-05-05T20:03:27.595Z,79.50
2023-05-05T20:05:55.611Z,80.40
2023-05-05T20:08:23.570Z,81.10
2023-05-05T20:10:53.191Z,81.40
2023-05-05T20:13:21.365Z,81.20
2023-05-05T20:15:51.023Z,81.50
2023-05-05T20:18:19.020Z,81.50
2023-05-05T20:20:46.995Z,82.00
2023-05-05T20:23:15.185Z,82.70
2023-05-05T20:25:43.383Z,83.00
2023-05-05T20:28:11.360Z,83.70
2023-05-05T20:30:39.300Z,81.70
2023-05-05T20:33:08.675Z,80.90
2023-05-05T20:35:36.746Z,83.00
2023-05-05T20:38:04.915Z,83.70
2023-05-05T20:40:33.280Z,84.50
2023-05-05T20:43:01.302Z,84.40
2023-05-05T20:45:31.714Z,83.10
2023-05-05T20:48:00.782Z,84.20
2023-05-05T20:50:32.385Z,82.20
2023-05-05T20:53:00.558Z,82.70
2023-05-05T20:55:28.694Z,83.30
2023-05-05T20:57:56.711Z,83.80
2023-05-05T21:00:25.028Z,84.20
2023-05-05T21:02:53.428Z,84.30
2023-05-05T21:05:21.758Z,84.80
2023-05-05T21:07:51.109Z,85.10
2023-05-05T21:10:19.066Z,85.20
2023-05-05T21:12:47.171Z,84.50
2023-05-05T21:15:16.848Z,84.30
2023-05-05T21:17:45.010Z,84.80
2023-05-05T21:20:13.944Z,85.20
2023-05-05T21:22:42.050Z,85.80
2023-05-05T21:25:15.961Z,86.10
2023-05-05T21:27:44.127Z,86.40
2023-05-05T21:30:13.102Z,86.90
2023-05-05T21:32:41.594Z,87.20
2023-05-05T21:35:10.808Z,87.50
2023-05-05T21:37:39.974Z,87.50
2023-05-05T21:40:11.268Z,87.50
2023-05-05T21:42:40.827Z,87.80
2023-05-05T21:45:09.933Z,88.40
2023-05-05T21:47:38.032Z,89.00
2023-05-05T21:50:06.745Z,89.40
2023-05-05T21:52:34.819Z,89.50
2023-05-05T21:55:03.820Z,89.60
2023-05-05T21:57:31.815Z,89.50
2023-05-05T22:00:01.183Z,89.60
2023-05-05T22:02:29.221Z,90.00
2023-05-05T22:04:57.320Z,90.40
2023-05-05T22:07:25.979Z,90.40
2023-05-05T22:09:53.952Z,90.40
2023-05-05T22:12:22.067Z,90.10
2023-05-05T22:14:50.023Z,90.40
2023-05-05T22:17:19.332Z,90.60
2023-05-05T22:19:47.292Z,90.80
2023-05-05T22:22:16.498Z,90.80
2023-05-05T22:24:44.512Z,91.10
2023-05-05T22:27:12.472Z,91.30
2023-05-05T22:29:40.425Z,91.50
2023-05-05T22:32:08.571Z,91.40
2023-05-05T22:34:38.006Z,92.60
2023-05-05T22:37:06.086Z,94.70
2023-05-05T22:39:34.162Z,97.20
2023-05-05T22:42:02.437Z,98.90
2023-05-05T22:44:30.425Z,99.60
2023-05-05T22:46:58.612Z,99.90
2023-05-05T22:49:26.805Z,99.90
2023-05-05T22:51:57.212Z,99.90
2023-05-05T22:54:25.224Z,99.90
2023-05-05T22:56:53.224Z,99.90
2023-05-05T22:59:21.195Z,99.90
2023-05-05T23:01:49.160Z,99.90
2023-05-05T23:04:17.339Z,99.90
2023-05-05T23:06:45.435Z,99.90
2023-05-05T23:09:14.749Z,99.90
2023-05-05T23:11:42.682Z,99.90
2023-05-05T23:14:10.720Z,99.90
2023-05-05T23:16:38.697Z,99.90
2023-05-05T23:19:06.699Z,99.90
2023-05-05T23:21:41.834Z,99.90
2023-05-05T23:24:19.231Z,99.90
2023-05-05T23:26:47.279Z,99.90
2023-05-05T23:29:15.240Z,99.90
2023-05-05T23:31:43.216Z,99.90
2023-05-05T23:34:11.362Z,99.90
2023-05-05T23:36:39.436Z,99.90
2023-05-05T23:39:07.441Z,99.90
2023-05-05T23:41:36.780Z,99.90
2023-05-05T23:44:04.715Z,99.90
2023-05-05T23:46:32.757Z,99.90
2023-05-05T23:49:00.798Z,99.90
2023-05-05T23:51:28.738Z,99.90
2023-05-05T23:53:57.757Z,99.90
2023-05-05T23:56:26.248Z,99.90
2023-05-05T23:58:56.206Z,99.90
